sensor_id;sensor_type;location;lat;lon;timestamp;pressure;altitude;pressure_sealevel;temperature;humidity
70437;BME280;57877;39.750;-104.894;2024-01-10T00:02:08;82231.95;;;4.32;22.99
70437;BME280;57877;39.750;-104.894;2024-01-10T00:04:33;82220.58;;;4.41;22.62
70437;BME280;57877;39.750;-104.894;2024-01-10T00:06:58;82215.15;;;4.08;23.04
70437;BME280;57877;39.750;-104.894;2024-01-10T00:09:23;82214.76;;;3.69;23.51
70437;BME280;57877;39.750;-104.894;2024-01-10T00:11:48;82209.98;;;3.97;23.57
70437;BME280;57877;39.750;-104.894;2024-01-10T00:14:13;82221.97;;;3.67;23.32
70437;BME280;57877;39.750;-104.894;2024-01-10T00:16:38;82231.17;;;3.76;23.80
70437;BME280;57877;39.750;-104.894;2024-01-10T00:19:04;82231.70;;;3.11;24.32
70437;BME280;57877;39.750;-104.894;2024-01-10T00:21:29;82235.34;;;3.32;23.63
70437;BME280;57877;39.750;-104.894;2024-01-10T00:23:54;82247.21;;;3.59;23.17
70437;BME280;57877;39.750;-104.894;2024-01-10T00:26:19;82238.38;;;3.40;23.49
70437;BME280;57877;39.750;-104.894;2024-01-10T00:28:44;82251.08;;;3.64;23.17
70437;BME280;57877;39.750;-104.894;2024-01-10T00:31:09;82238.22;;;3.40;22.96
70437;BME280;57877;39.750;-104.894;2024-01-10T00:33:34;82239.91;;;3.19;23.65
70437;BME280;57877;39.750;-104.894;2024-01-10T00:36:01;82234.65;;;2.42;24.75
70437;BME280;57877;39.750;-104.894;2024-01-10T00:38:25;82239.54;;;2.51;25.11
70437;BME280;57877;39.750;-104.894;2024-01-10T00:40:50;82238.02;;;2.38;24.92
70437;BME280;57877;39.750;-104.894;2024-01-10T00:43:16;82244.61;;;1.84;25.42
70437;BME280;57877;39.750;-104.894;2024-01-10T00:45:41;82248.15;;;1.69;25.58
70437;BME280;57877;39.750;-104.894;2024-01-10T00:48:06;82249.17;;;2.25;25.26
70437;BME280;57877;39.750;-104.894;2024-01-10T00:50:31;82257.04;;;1.66;26.12
70437;BME280;57877;39.750;-104.894;2024-01-10T00:52:56;82248.59;;;1.58;25.45
70437;BME280;57877;39.750;-104.894;2024-01-10T00:55:21;82248.07;;;1.75;24.95
70437;BME280;57877;39.750;-104.894;2024-01-10T00:57:46;82251.42;;;2.18;24.25
70437;BME280;57877;39.750;-104.894;2024-01-10T01:00:12;82246.95;;;1.56;24.38
70437;BME280;57877;39.750;-104.894;2024-01-10T01:02:36;82247.70;;;2.47;24.07
70437;BME280;57877;39.750;-104.894;2024-01-10T01:05:01;82243.66;;;2.67;23.65
70437;BME280;57877;39.750;-104.894;2024-01-10T01:07:26;82244.44;;;3.80;22.22
70437;BME280;57877;39.750;-104.894;2024-01-10T01:09:51;82247.89;;;2.78;23.31
70437;BME280;57877;39.750;-104.894;2024-01-10T01:12:16;82240.56;;;2.97;23.01
70437;BME280;57877;39.750;-104.894;2024-01-10T01:14:41;82241.47;;;2.52;23.54
70437;BME280;57877;39.750;-104.894;2024-01-10T01:17:06;82245.30;;;2.16;23.88
70437;BME280;57877;39.750;-104.894;2024-01-10T01:19:31;82240.14;;;2.45;24.36
70437;BME280;57877;39.750;-104.894;2024-01-10T01:21:56;82236.91;;;1.35;25.00
70437;BME280;57877;39.750;-104.894;2024-01-10T01:24:22;82237.37;;;2.53;24.44
70437;BME280;57877;39.750;-104.894;2024-01-10T01:26:47;82240.75;;;1.48;25.20
70437;BME280;57877;39.750;-104.894;2024-01-10T01:29:12;82238.57;;;1.77;24.66
70437;BME280;57877;39.750;-104.894;2024-01-10T01:31:37;82240.86;;;1.28;25.93
70437;BME280;57877;39.750;-104.894;2024-01-10T01:34:02;82238.24;;;1.87;25.46
70437;BME280;57877;39.750;-104.894;2024-01-10T01:36:27;82237.13;;;2.46;25.17
70437;BME280;57877;39.750;-104.894;2024-01-10T01:38:52;82237.35;;;2.35;24.89
70437;BME280;57877;39.750;-104.894;2024-01-10T01:41:17;82233.02;;;1.42;25.48
70437;BME280;57877;39.750;-104.894;2024-01-10T01:43:43;82233.65;;;2.55;24.24
70437;BME280;57877;39.750;-104.894;2024-01-10T01:46:08;82231.58;;;2.55;24.62
70437;BME280;57877;39.750;-104.894;2024-01-10T01:48:32;82227.21;;;3.12;23.70
70437;BME280;57877;39.750;-104.894;2024-01-10T01:51:01;82223.79;;;3.06;23.97
70437;BME280;57877;39.750;-104.894;2024-01-10T01:53:22;82215.01;;;2.92;24.33
70437;BME280;57877;39.750;-104.894;2024-01-10T01:55:48;82206.81;;;0.67;26.49
70437;BME280;57877;39.750;-104.894;2024-01-10T01:58:12;82198.15;;;1.52;25.85
70437;BME280;57877;39.750;-104.894;2024-01-10T02:00:38;82193.18;;;0.55;26.69
70437;BME280;57877;39.750;-104.894;2024-01-10T02:03:03;82200.59;;;-0.09;27.28
70437;BME280;57877;39.750;-104.894;2024-01-10T02:05:28;82210.11;;;0.83;26.82
70437;BME280;57877;39.750;-104.894;2024-01-10T02:07:53;82198.07;;;0.88;26.76
70437;BME280;57877;39.750;-104.894;2024-01-10T02:10:19;82199.72;;;0.55;27.11
70437;BME280;57877;39.750;-104.894;2024-01-10T02:12:43;82209.44;;;0.25;27.89
70437;BME280;57877;39.750;-104.894;2024-01-10T02:15:08;82201.73;;;-0.10;28.01
70437;BME280;57877;39.750;-104.894;2024-01-10T02:17:33;82207.96;;;0.39;27.67
70437;BME280;57877;39.750;-104.894;2024-01-10T02:22:23;82201.62;;;1.02;26.42
70437;BME280;57877;39.750;-104.894;2024-01-10T02:24:54;82205.95;;;0.39;27.14
70437;BME280;57877;39.750;-104.894;2024-01-10T02:27:14;82209.53;;;0.49;27.32
70437;BME280;57877;39.750;-104.894;2024-01-10T02:29:38;82209.70;;;0.95;26.69
70437;BME280;57877;39.750;-104.894;2024-01-10T02:32:04;82200.77;;;1.50;26.22
70437;BME280;57877;39.750;-104.894;2024-01-10T02:34:30;82214.36;;;0.87;26.35
70437;BME280;57877;39.750;-104.894;2024-01-10T02:36:54;82207.84;;;1.30;25.80
70437;BME280;57877;39.750;-104.894;2024-01-10T02:39:19;82206.90;;;1.31;25.64
70437;BME280;57877;39.750;-104.894;2024-01-10T02:41:44;82199.38;;;1.21;25.44
70437;BME280;57877;39.750;-104.894;2024-01-10T02:44:09;82198.37;;;1.70;25.27
70437;BME280;57877;39.750;-104.894;2024-01-10T02:46:34;82191.41;;;2.68;24.17
70437;BME280;57877;39.750;-104.894;2024-01-10T02:48:59;82179.37;;;2.04;24.18
70437;BME280;57877;39.750;-104.894;2024-01-10T02:51:26;82175.57;;;2.31;24.27
70437;BME280;57877;39.750;-104.894;2024-01-10T02:53:49;82176.21;;;1.67;25.14
70437;BME280;57877;39.750;-104.894;2024-01-10T02:56:14;82174.81;;;2.16;24.89
70437;BME280;57877;39.750;-104.894;2024-01-10T02:58:40;82171.91;;;2.64;24.10
70437;BME280;57877;39.750;-104.894;2024-01-10T03:01:05;82170.89;;;2.66;24.48
70437;BME280;57877;39.750;-104.894;2024-01-10T03:03:30;82177.35;;;3.05;23.77
70437;BME280;57877;39.750;-104.894;2024-01-10T03:05:55;82179.70;;;3.22;23.00
70437;BME280;57877;39.750;-104.894;2024-01-10T03:08:20;82188.89;;;2.60;23.48
70437;BME280;57877;39.750;-104.894;2024-01-10T03:10:45;82196.05;;;3.35;22.59
70437;BME280;57877;39.750;-104.894;2024-01-10T03:13:10;82195.37;;;3.92;21.70
70437;BME280;57877;39.750;-104.894;2024-01-10T03:15:35;82193.13;;;4.15;21.43
70437;BME280;57877;39.750;-104.894;2024-01-10T03:18:00;82199.26;;;4.16;21.37
70437;BME280;57877;39.750;-104.894;2024-01-10T03:20:25;82198.01;;;4.30;21.03
70437;BME280;57877;39.750;-104.894;2024-01-10T03:22:50;82209.65;;;4.45;21.01
70437;BME280;57877;39.750;-104.894;2024-01-10T03:25:15;82211.33;;;4.51;20.69
70437;BME280;57877;39.750;-104.894;2024-01-10T03:27:40;82212.88;;;4.60;20.69
70437;BME280;57877;39.750;-104.894;2024-01-10T03:30:07;82210.64;;;4.66;20.91
70437;BME280;57877;39.750;-104.894;2024-01-10T03:32:31;82202.27;;;4.60;20.48
70437;BME280;57877;39.750;-104.894;2024-01-10T03:34:56;82198.18;;;4.48;20.56
70437;BME280;57877;39.750;-104.894;2024-01-10T03:37:21;82202.40;;;4.72;21.35
70437;BME280;57877;39.750;-104.894;2024-01-10T03:39:46;82208.72;;;4.17;21.72
70437;BME280;57877;39.750;-104.894;2024-01-10T03:42:11;82205.11;;;4.43;21.28
70437;BME280;57877;39.750;-104.894;2024-01-10T03:44:36;82202.56;;;3.97;21.64
70437;BME280;57877;39.750;-104.894;2024-01-10T03:47:01;82208.20;;;3.97;22.02
70437;BME280;57877;39.750;-104.894;2024-01-10T03:49:26;82205.62;;;3.66;22.75
70437;BME280;57877;39.750;-104.894;2024-01-10T03:51:51;82196.62;;;3.66;22.35
70437;BME280;57877;39.750;-104.894;2024-01-10T03:54:16;82202.63;;;3.68;22.30
70437;BME280;57877;39.750;-104.894;2024-01-10T03:56:42;82206.00;;;3.52;22.33
70437;BME280;57877;39.750;-104.894;2024-01-10T03:59:07;82196.58;;;3.52;21.87
70437;BME280;57877;39.750;-104.894;2024-01-10T04:01:32;82195.55;;;3.66;22.16
70437;BME280;57877;39.750;-104.894;2024-01-10T04:03:57;82206.31;;;3.51;22.14
70437;BME280;57877;39.750;-104.894;2024-01-10T04:06:22;82204.11;;;3.30;22.48
70437;BME280;57877;39.750;-104.894;2024-01-10T04:08:47;82202.62;;;3.65;22.93
70437;BME280;57877;39.750;-104.894;2024-01-10T04:11:12;82204.73;;;3.49;23.23
70437;BME280;57877;39.750;-104.894;2024-01-10T04:13:37;82202.65;;;3.08;23.40
70437;BME280;57877;39.750;-104.894;2024-01-10T04:16:03;82211.17;;;3.02;23.62
70437;BME280;57877;39.750;-104.894;2024-01-10T04:18:28;82208.85;;;2.64;23.97
70437;BME280;57877;39.750;-104.894;2024-01-10T04:20:53;82211.77;;;2.50;24.15
70437;BME280;57877;39.750;-104.894;2024-01-10T04:23:18;82213.47;;;2.78;24.14
70437;BME280;57877;39.750;-104.894;2024-01-10T04:25:43;82213.75;;;2.59;24.21
70437;BME280;57877;39.750;-104.894;2024-01-10T04:28:08;82213.89;;;3.14;24.25
70437;BME280;57877;39.750;-104.894;2024-01-10T04:30:33;82218.73;;;2.58;24.44
70437;BME280;57877;39.750;-104.894;2024-01-10T04:32:59;82226.69;;;2.71;24.67
70437;BME280;57877;39.750;-104.894;2024-01-10T04:35:24;82224.54;;;2.41;24.89
70437;BME280;57877;39.750;-104.894;2024-01-10T04:37:49;82214.78;;;1.73;24.77
70437;BME280;57877;39.750;-104.894;2024-01-10T04:40:14;82217.44;;;1.31;24.69
70437;BME280;57877;39.750;-104.894;2024-01-10T04:42:39;82214.28;;;0.87;24.35
70437;BME280;57877;39.750;-104.894;2024-01-10T04:45:05;82202.35;;;1.53;23.64
70437;BME280;57877;39.750;-104.894;2024-01-10T04:47:29;82184.35;;;1.85;23.06
70437;BME280;57877;39.750;-104.894;2024-01-10T04:49:54;82182.75;;;2.41;22.44
70437;BME280;57877;39.750;-104.894;2024-01-10T04:52:20;82170.99;;;1.73;22.63
70437;BME280;57877;39.750;-104.894;2024-01-10T04:54:45;82170.83;;;1.51;22.53
70437;BME280;57877;39.750;-104.894;2024-01-10T04:57:10;82159.27;;;1.59;22.62
70437;BME280;57877;39.750;-104.894;2024-01-10T04:59:35;82157.20;;;1.28;23.10
70437;BME280;57877;39.750;-104.894;2024-01-10T05:02:00;82157.10;;;1.62;22.70
70437;BME280;57877;39.750;-104.894;2024-01-10T05:04:25;82162.26;;;2.31;22.37
70437;BME280;57877;39.750;-104.894;2024-01-10T05:06:50;82151.92;;;2.20;22.46
70437;BME280;57877;39.750;-104.894;2024-01-10T05:09:16;82148.22;;;1.65;23.03
70437;BME280;57877;39.750;-104.894;2024-01-10T05:11:41;82145.02;;;1.64;23.03
70437;BME280;57877;39.750;-104.894;2024-01-10T05:14:06;82145.48;;;1.75;23.13
70437;BME280;57877;39.750;-104.894;2024-01-10T05:16:31;82143.38;;;2.10;22.70
70437;BME280;57877;39.750;-104.894;2024-01-10T05:18:56;82149.40;;;2.36;22.66
70437;BME280;57877;39.750;-104.894;2024-01-10T05:21:21;82155.45;;;1.59;23.19
70437;BME280;57877;39.750;-104.894;2024-01-10T05:23:46;82146.11;;;2.19;22.87
70437;BME280;57877;39.750;-104.894;2024-01-10T05:26:11;82146.47;;;2.23;22.65
70437;BME280;57877;39.750;-104.894;2024-01-10T05:28:37;82149.35;;;1.56;23.12
70437;BME280;57877;39.750;-104.894;2024-01-10T05:31:02;82144.29;;;2.13;23.23
70437;BME280;57877;39.750;-104.894;2024-01-10T05:33:27;82141.32;;;2.05;22.88
70437;BME280;57877;39.750;-104.894;2024-01-10T05:35:52;82134.96;;;2.79;22.27
70437;BME280;57877;39.750;-104.894;2024-01-10T05:38:17;82129.59;;;2.88;22.19
70437;BME280;57877;39.750;-104.894;2024-01-10T05:40:42;82123.76;;;2.35;21.97
70437;BME280;57877;39.750;-104.894;2024-01-10T05:43:07;82120.36;;;2.95;21.96
70437;BME280;57877;39.750;-104.894;2024-01-10T05:45:32;82118.84;;;3.60;21.74
70437;BME280;57877;39.750;-104.894;2024-01-10T05:47:57;82113.86;;;2.62;21.95
70437;BME280;57877;39.750;-104.894;2024-01-10T05:50:22;82116.15;;;2.86;21.50
70437;BME280;57877;39.750;-104.894;2024-01-10T05:52:47;82114.74;;;3.04;21.53
70437;BME280;57877;39.750;-104.894;2024-01-10T05:55:13;82113.27;;;3.40;21.26
70437;BME280;57877;39.750;-104.894;2024-01-10T05:57:38;82112.77;;;3.43;21.05
70437;BME280;57877;39.750;-104.894;2024-01-10T06:00:03;82113.92;;;3.20;21.05
70437;BME280;57877;39.750;-104.894;2024-01-10T06:02:28;82110.41;;;2.94;21.20
70437;BME280;57877;39.750;-104.894;2024-01-10T06:04:53;82107.51;;;2.74;21.15
70437;BME280;57877;39.750;-104.894;2024-01-10T06:07:18;82107.12;;;2.43;21.83
70437;BME280;57877;39.750;-104.894;2024-01-10T06:09:43;82106.18;;;2.85;21.49
70437;BME280;57877;39.750;-104.894;2024-01-10T06:12:08;82100.60;;;1.78;22.12
70437;BME280;57877;39.750;-104.894;2024-01-10T06:14:33;82102.26;;;2.66;21.54
70437;BME280;57877;39.750;-104.894;2024-01-10T06:16:58;82092.48;;;2.73;21.47
70437;BME280;57877;39.750;-104.894;2024-01-10T06:19:24;82076.93;;;1.65;21.81
70437;BME280;57877;39.750;-104.894;2024-01-10T06:21:49;82078.71;;;1.53;22.09
70437;BME280;57877;39.750;-104.894;2024-01-10T06:24:14;82078.21;;;1.87;21.66
70437;BME280;57877;39.750;-104.894;2024-01-10T06:26:39;82075.41;;;2.07;21.41
70437;BME280;57877;39.750;-104.894;2024-01-10T06:29:04;82062.94;;;2.52;20.89
70437;BME280;57877;39.750;-104.894;2024-01-10T06:31:29;82051.85;;;1.86;21.35
70437;BME280;57877;39.750;-104.894;2024-01-10T06:33:54;82049.61;;;1.32;21.62
70437;BME280;57877;39.750;-104.894;2024-01-10T06:36:19;82050.82;;;2.30;21.68
70437;BME280;57877;39.750;-104.894;2024-01-10T06:38:44;82043.92;;;1.45;22.30
70437;BME280;57877;39.750;-104.894;2024-01-10T06:41:09;82046.47;;;2.12;21.93
70437;BME280;57877;39.750;-104.894;2024-01-10T06:43:34;82041.38;;;1.67;22.00
70437;BME280;57877;39.750;-104.894;2024-01-10T06:45:59;82044.04;;;2.01;21.60
70437;BME280;57877;39.750;-104.894;2024-01-10T06:48:24;82043.11;;;1.93;22.08
70437;BME280;57877;39.750;-104.894;2024-01-10T06:50:50;82039.41;;;1.75;21.94
70437;BME280;57877;39.750;-104.894;2024-01-10T06:53:15;82037.07;;;2.22;21.85
70437;BME280;57877;39.750;-104.894;2024-01-10T06:55:40;82032.88;;;2.70;21.59
70437;BME280;57877;39.750;-104.894;2024-01-10T06:58:05;82033.52;;;3.22;21.22
70437;BME280;57877;39.750;-104.894;2024-01-10T07:00:30;82015.05;;;2.97;21.72
70437;BME280;57877;39.750;-104.894;2024-01-10T07:02:55;82019.71;;;3.18;21.53
70437;BME280;57877;39.750;-104.894;2024-01-10T07:05:20;82019.80;;;2.19;22.22
70437;BME280;57877;39.750;-104.894;2024-01-10T07:07:45;82020.81;;;2.01;22.51
70437;BME280;57877;39.750;-104.894;2024-01-10T07:10:10;82024.17;;;2.61;22.61
70437;BME280;57877;39.750;-104.894;2024-01-10T07:12:35;82013.35;;;2.63;22.19
70437;BME280;57877;39.750;-104.894;2024-01-10T07:15:00;82017.16;;;3.20;21.52
70437;BME280;57877;39.750;-104.894;2024-01-10T07:17:25;82024.23;;;2.23;22.49
70437;BME280;57877;39.750;-104.894;2024-01-10T07:19:51;82018.87;;;1.35;22.85
70437;BME280;57877;39.750;-104.894;2024-01-10T07:22:16;82025.19;;;2.39;22.45
70437;BME280;57877;39.750;-104.894;2024-01-10T07:24:41;82026.61;;;2.58;22.49
70437;BME280;57877;39.750;-104.894;2024-01-10T07:27:06;82020.53;;;3.03;22.66
70437;BME280;57877;39.750;-104.894;2024-01-10T07:29:31;82024.18;;;2.62;23.04
70437;BME280;57877;39.750;-104.894;2024-01-10T07:31:56;82015.06;;;2.76;23.06
70437;BME280;57877;39.750;-104.894;2024-01-10T07:34:21;82019.23;;;2.78;23.39
70437;BME280;57877;39.750;-104.894;2024-01-10T07:36:46;82021.19;;;2.42;23.64
70437;BME280;57877;39.750;-104.894;2024-01-10T07:39:11;82017.16;;;2.18;24.12
70437;BME280;57877;39.750;-104.894;2024-01-10T07:41:37;82015.22;;;2.60;23.99
70437;BME280;57877;39.750;-104.894;2024-01-10T07:44:02;82017.82;;;3.07;23.79
70437;BME280;57877;39.750;-104.894;2024-01-10T07:46:27;82028.75;;;2.94;23.82
70437;BME280;57877;39.750;-104.894;2024-01-10T07:48:52;82031.35;;;1.91;24.21
70437;BME280;57877;39.750;-104.894;2024-01-10T07:51:17;82036.22;;;2.90;24.15
70437;BME280;57877;39.750;-104.894;2024-01-10T07:53:42;82046.97;;;2.12;24.83
70437;BME280;57877;39.750;-104.894;2024-01-10T07:56:07;82056.42;;;2.78;24.60
70437;BME280;57877;39.750;-104.894;2024-01-10T07:58:32;82056.55;;;2.21;24.98
70437;BME280;57877;39.750;-104.894;2024-01-10T08:00:58;82058.64;;;2.26;25.04
70437;BME280;57877;39.750;-104.894;2024-01-10T08:03:23;82075.16;;;1.93;25.78
70437;BME280;57877;39.750;-104.894;2024-01-10T08:05:48;82095.91;;;2.46;25.52
70437;BME280;57877;39.750;-104.894;2024-01-10T08:08:13;82118.99;;;1.86;26.78
70437;BME280;57877;39.750;-104.894;2024-01-10T08:10:38;82151.04;;;1.32;28.69
70437;BME280;57877;39.750;-104.894;2024-01-10T08:13:03;82169.41;;;-0.35;33.43
70437;BME280;57877;39.750;-104.894;2024-01-10T08:15:28;82175.55;;;-2.28;40.07
70437;BME280;57877;39.750;-104.894;2024-01-10T08:17:53;82195.25;;;-2.29;44.11
70437;BME280;57877;39.750;-104.894;2024-01-10T08:20:18;82213.35;;;-3.61;50.61
70437;BME280;57877;39.750;-104.894;2024-01-10T08:22:43;82233.53;;;-2.93;48.48
70437;BME280;57877;39.750;-104.894;2024-01-10T08:25:09;82235.20;;;-3.10;47.72
70437;BME280;57877;39.750;-104.894;2024-01-10T08:27:34;82247.26;;;-2.12;42.87
70437;BME280;57877;39.750;-104.894;2024-01-10T08:29:58;82229.39;;;-1.15;41.08
70437;BME280;57877;39.750;-104.894;2024-01-10T08:32:24;82228.24;;;-1.06;37.84
70437;BME280;57877;39.750;-104.894;2024-01-10T08:34:49;82218.76;;;-1.11;35.05
70437;BME280;57877;39.750;-104.894;2024-01-10T08:37:14;82220.33;;;-0.80;33.85
70437;BME280;57877;39.750;-104.894;2024-01-10T08:39:39;82232.83;;;-1.00;32.93
70437;BME280;57877;39.750;-104.894;2024-01-10T08:42:04;82235.42;;;-1.00;32.96
70437;BME280;57877;39.750;-104.894;2024-01-10T08:44:29;82230.18;;;0.39;30.49
70437;BME280;57877;39.750;-104.894;2024-01-10T08:46:54;82225.30;;;-0.69;31.18
70437;BME280;57877;39.750;-104.894;2024-01-10T08:49:19;82221.73;;;-0.48;29.93
70437;BME280;57877;39.750;-104.894;2024-01-10T08:51:44;82208.46;;;0.42;29.26
70437;BME280;57877;39.750;-104.894;2024-01-10T08:54:09;82202.62;;;0.25;28.32
70437;BME280;57877;39.750;-104.894;2024-01-10T08:56:34;82199.72;;;0.52;27.91
70437;BME280;57877;39.750;-104.894;2024-01-10T08:59:00;82200.41;;;0.21;27.62
70437;BME280;57877;39.750;-104.894;2024-01-10T09:01:25;82205.24;;;0.40;27.68
70437;BME280;57877;39.750;-104.894;2024-01-10T09:03:50;82199.46;;;-0.16;27.95
70437;BME280;57877;39.750;-104.894;2024-01-10T09:06:15;82192.11;;;-0.10;27.76
70437;BME280;57877;39.750;-104.894;2024-01-10T09:08:40;82181.10;;;-0.56;28.03
70437;BME280;57877;39.750;-104.894;2024-01-10T09:11:05;82178.75;;;-0.30;28.16
70437;BME280;57877;39.750;-104.894;2024-01-10T09:13:30;82181.16;;;-1.29;28.93
70437;BME280;57877;39.750;-104.894;2024-01-10T09:15:55;82169.10;;;-1.47;29.56
70437;BME280;57877;39.750;-104.894;2024-01-10T09:18:20;82162.12;;;-2.07;30.47
70437;BME280;57877;39.750;-104.894;2024-01-10T09:20:45;82152.84;;;-2.98;31.68
70437;BME280;57877;39.750;-104.894;2024-01-10T09:23:11;82175.47;;;-2.82;31.99
70437;BME280;57877;39.750;-104.894;2024-01-10T09:25:36;82186.98;;;-2.44;31.33
70437;BME280;57877;39.750;-104.894;2024-01-10T09:28:01;82196.78;;;-2.61;32.00
70437;BME280;57877;39.750;-104.894;2024-01-10T09:30:26;82196.92;;;-2.23;31.81
70437;BME280;57877;39.750;-104.894;2024-01-10T09:32:51;82197.04;;;-3.18;32.40
70437;BME280;57877;39.750;-104.894;2024-01-10T09:35:16;82192.91;;;-1.84;31.77
70437;BME280;57877;39.750;-104.894;2024-01-10T09:37:41;82196.55;;;-2.34;31.42
70437;BME280;57877;39.750;-104.894;2024-01-10T09:40:07;82187.46;;;-3.42;32.78
70437;BME280;57877;39.750;-104.894;2024-01-10T09:42:31;82165.07;;;-3.26;32.61
70437;BME280;57877;39.750;-104.894;2024-01-10T09:44:56;82143.18;;;-3.71;32.76
70437;BME280;57877;39.750;-104.894;2024-01-10T09:47:22;82155.58;;;-3.31;32.52
70437;BME280;57877;39.750;-104.894;2024-01-10T09:49:47;82197.87;;;-2.83;31.55
70437;BME280;57877;39.750;-104.894;2024-01-10T09:52:19;82192.41;;;-3.17;31.31
70437;BME280;57877;39.750;-104.894;2024-01-10T09:54:38;82211.42;;;-2.99;31.67
70437;BME280;57877;39.750;-104.894;2024-01-10T09:57:02;82209.30;;;-3.28;32.26
70437;BME280;57877;39.750;-104.894;2024-01-10T09:59:27;82222.14;;;-3.93;32.69
70437;BME280;57877;39.750;-104.894;2024-01-10T10:01:52;82224.85;;;-4.45;33.52
70437;BME280;57877;39.750;-104.894;2024-01-10T10:04:19;82223.34;;;-3.94;33.86
70437;BME280;57877;39.750;-104.894;2024-01-10T10:06:42;82216.62;;;-3.40;32.52
70437;BME280;57877;39.750;-104.894;2024-01-10T10:09:08;82233.87;;;-2.48;31.33
70437;BME280;57877;39.750;-104.894;2024-01-10T10:11:33;82232.65;;;-3.02;31.93
70437;BME280;57877;39.750;-104.894;2024-01-10T10:16:25;82219.66;;;-2.87;32.03
70437;BME280;57877;39.750;-104.894;2024-01-10T10:18:50;82217.47;;;-2.33;31.21
70437;BME280;57877;39.750;-104.894;2024-01-10T10:21:14;82212.03;;;-2.84;30.93
70437;BME280;57877;39.750;-104.894;2024-01-10T10:23:39;82209.82;;;-2.34;30.32
70437;BME280;57877;39.750;-104.894;2024-01-10T10:26:11;82205.83;;;-2.97;30.33
70437;BME280;57877;39.750;-104.894;2024-01-10T10:28:29;82207.61;;;-3.96;30.99
70437;BME280;57877;39.750;-104.894;2024-01-10T10:30:53;82209.08;;;-2.69;30.73
70437;BME280;57877;39.750;-104.894;2024-01-10T10:33:19;82211.51;;;-2.44;29.56
70437;BME280;57877;39.750;-104.894;2024-01-10T10:35:45;82213.49;;;-2.58;29.45
70437;BME280;57877;39.750;-104.894;2024-01-10T10:38:09;82212.09;;;-2.93;29.19
70437;BME280;57877;39.750;-104.894;2024-01-10T10:40:34;82217.30;;;-2.49;28.67
70437;BME280;57877;39.750;-104.894;2024-01-10T10:43:00;82216.45;;;-1.71;28.00
70437;BME280;57877;39.750;-104.894;2024-01-10T10:45:24;82217.08;;;-1.65;27.32
70437;BME280;57877;39.750;-104.894;2024-01-10T10:47:50;82214.30;;;-2.25;28.30
70437;BME280;57877;39.750;-104.894;2024-01-10T10:50:19;82208.27;;;-1.73;27.23
70437;BME280;57877;39.750;-104.894;2024-01-10T10:52:41;82217.45;;;-2.92;27.55
70437;BME280;57877;39.750;-104.894;2024-01-10T10:55:05;82205.32;;;-2.12;26.93
70437;BME280;57877;39.750;-104.894;2024-01-10T10:57:30;82207.05;;;-3.13;27.30
70437;BME280;57877;39.750;-104.894;2024-01-10T10:59:56;82213.43;;;-1.99;26.78
70437;BME280;57877;39.750;-104.894;2024-01-10T11:02:21;82214.22;;;-2.42;26.48
70437;BME280;57877;39.750;-104.894;2024-01-10T11:04:45;82222.19;;;-2.75;27.20
70437;BME280;57877;39.750;-104.894;2024-01-10T11:07:10;82208.42;;;-1.16;26.16
70437;BME280;57877;39.750;-104.894;2024-01-10T11:09:35;82214.84;;;-2.07;26.50
70437;BME280;57877;39.750;-104.894;2024-01-10T11:12:15;82206.62;;;-1.73;26.38
70437;BME280;57877;39.750;-104.894;2024-01-10T11:14:33;82203.47;;;-2.30;27.89
70437;BME280;57877;39.750;-104.894;2024-01-10T11:17:01;82216.72;;;-2.26;27.56
70437;BME280;57877;39.750;-104.894;2024-01-10T11:19:27;82218.50;;;-2.92;28.03
70437;BME280;57877;39.750;-104.894;2024-01-10T11:24:06;82227.10;;;-2.47;27.67
70437;BME280;57877;39.750;-104.894;2024-01-10T11:26:32;82224.27;;;-2.31;27.48
70437;BME280;57877;39.750;-104.894;2024-01-10T11:28:57;82229.70;;;-1.77;26.90
70437;BME280;57877;39.750;-104.894;2024-01-10T11:31:27;82239.10;;;-2.16;27.22
70437;BME280;57877;39.750;-104.894;2024-01-10T11:33:46;82230.87;;;-2.88;28.25
70437;BME280;57877;39.750;-104.894;2024-01-10T11:36:14;82234.27;;;-1.89;26.78
70437;BME280;57877;39.750;-104.894;2024-01-10T11:38:41;82241.19;;;-2.85;27.79
70437;BME280;57877;39.750;-104.894;2024-01-10T11:41:01;82224.22;;;-1.95;27.04
70437;BME280;57877;39.750;-104.894;2024-01-10T11:43:26;82231.80;;;-1.66;26.36
70437;BME280;57877;39.750;-104.894;2024-01-10T11:45:52;82234.65;;;-2.17;27.34
70437;BME280;57877;39.750;-104.894;2024-01-10T11:50:42;82250.33;;;-1.50;26.81
70437;BME280;57877;39.750;-104.894;2024-01-10T11:53:07;82251.63;;;-1.62;27.43
70437;BME280;57877;39.750;-104.894;2024-01-10T11:58:08;82248.15;;;-2.07;27.91
70437;BME280;57877;39.750;-104.894;2024-01-10T12:00:23;82233.74;;;-1.99;27.60
70437;BME280;57877;39.750;-104.894;2024-01-10T12:02:48;82230.83;;;-1.84;26.58
70437;BME280;57877;39.750;-104.894;2024-01-10T12:05:13;82228.73;;;-1.62;25.70
70437;BME280;57877;39.750;-104.894;2024-01-10T12:07:38;82228.46;;;-2.15;25.97
70437;BME280;57877;39.750;-104.894;2024-01-10T12:10:04;82229.13;;;-1.74;26.21
70437;BME280;57877;39.750;-104.894;2024-01-10T12:12:29;82221.28;;;-2.07;26.16
70437;BME280;57877;39.750;-104.894;2024-01-10T12:14:53;82219.61;;;-1.88;25.69
70437;BME280;57877;39.750;-104.894;2024-01-10T12:17:18;82203.28;;;-2.31;25.56
70437;BME280;57877;39.750;-104.894;2024-01-10T12:19:43;82208.58;;;-2.09;25.47
70437;BME280;57877;39.750;-104.894;2024-01-10T12:22:09;82206.25;;;-3.30;26.69
70437;BME280;57877;39.750;-104.894;2024-01-10T12:24:34;82205.74;;;-3.21;26.94
70437;BME280;57877;39.750;-104.894;2024-01-10T12:26:59;82206.18;;;-3.44;26.59
70437;BME280;57877;39.750;-104.894;2024-01-10T12:29:24;82189.71;;;-3.83;27.48
70437;BME280;57877;39.750;-104.894;2024-01-10T12:31:49;82175.39;;;-3.55;27.10
70437;BME280;57877;39.750;-104.894;2024-01-10T12:34:15;82181.70;;;-3.46;26.43
70437;BME280;57877;39.750;-104.894;2024-01-10T12:36:40;82172.78;;;-3.51;26.32